sensor_id;sensor_type;location;lat;lon;timestamp;P1;durP1;ratioP1;P2;durP2;ratioP2
5491;SDS011;2768;53.540;10.224;2022-10-23T00:04:00;7.30;;;5.80;;
5491;SDS011;2768;53.540;10.224;2022-10-23T00:09:55;7.50;;;6.00;;
5491;SDS011;2768;53.540;10.224;2022-10-23T00:15:48;7.93;;;5.53;;
5491;SDS011;2768;53.540;10.224;2022-10-23T00:21:43;8.70;;;6.00;;
5491;SDS011;2768;53.540;10.224;2022-10-23T00:27:37;11.93;;;7.03;;
5491;SDS011;2768;53.540;10.224;2022-10-23T00:33:32;8.77;;;6.40;;
5491;SDS011;2768;53.540;10.224;2022-10-23T00:39:26;7.00;;;6.00;;
5491;SDS011;2768;53.540;10.224;2022-10-23T00:45:21;8.27;;;6.90;;
5491;SDS011;2768;53.540;10.224;2022-10-23T00:51:16;7.53;;;6.83;;
5491;SDS011;2768;53.540;10.224;2022-10-23T00:57:12;6.70;;;6.07;;
5491;SDS011;2768;53.540;10.224;2022-10-23T01:03:06;7.63;;;6.07;;
5491;SDS011;2768;53.540;10.224;2022-10-23T01:09:02;7.40;;;6.70;;
5491;SDS011;2768;53.540;10.224;2022-10-23T01:15:04;16.23;;;6.03;;
5491;SDS011;2768;53.540;10.224;2022-10-23T01:21:03;7.43;;;6.00;;
5491;SDS011;2768;53.540;10.224;2022-10-23T01:27:12;8.63;;;6.70;;
5491;SDS011;2768;53.540;10.224;2022-10-23T01:33:08;13.13;;;7.57;;
5491;SDS011;2768;53.540;10.224;2022-10-23T01:39:11;8.37;;;6.13;;
5491;SDS011;2768;53.540;10.224;2022-10-23T01:45:12;15.77;;;7.70;;
5491;SDS011;2768;53.540;10.224;2022-10-23T01:51:10;8.23;;;7.37;;
5491;SDS011;2768;53.540;10.224;2022-10-23T01:57:07;9.43;;;7.83;;
5491;SDS011;2768;53.540;10.224;2022-10-23T02:03:04;11.27;;;7.43;;
5491;SDS011;2768;53.540;10.224;2022-10-23T02:09:00;11.63;;;6.40;;
5491;SDS011;2768;53.540;10.224;2022-10-23T02:14:54;7.70;;;6.80;;
5491;SDS011;2768;53.540;10.224;2022-10-23T02:20:54;7.93;;;6.60;;
5491;SDS011;2768;53.540;10.224;2022-10-23T02:26:51;9.77;;;7.13;;
5491;SDS011;2768;53.540;10.224;2022-10-23T02:32:48;6.77;;;6.13;;
5491;SDS011;2768;53.540;10.224;2022-10-23T02:38:46;10.10;;;6.37;;
5491;SDS011;2768;53.540;10.224;2022-10-23T02:44:41;9.40;;;7.07;;
5491;SDS011;2768;53.540;10.224;2022-10-23T02:50:42;7.90;;;7.10;;
5491;SDS011;2768;53.540;10.224;2022-10-23T03:03:51;8.00;;;6.80;;
5491;SDS011;2768;53.540;10.224;2022-10-23T03:09:51;8.03;;;5.90;;
5491;SDS011;2768;53.540;10.224;2022-10-23T03:15:45;9.97;;;5.87;;
5491;SDS011;2768;53.540;10.224;2022-10-23T03:22:01;7.00;;;6.30;;
5491;SDS011;2768;53.540;10.224;2022-10-23T03:28:05;7.10;;;6.20;;
5491;SDS011;2768;53.540;10.224;2022-10-23T03:34:02;6.40;;;5.90;;
5491;SDS011;2768;53.540;10.224;2022-10-23T03:40:10;5.93;;;5.30;;
5491;SDS011;2768;53.540;10.224;2022-10-23T03:46:08;6.07;;;5.27;;
5491;SDS011;2768;53.540;10.224;2022-10-23T03:52:08;5.50;;;5.10;;
5491;SDS011;2768;53.540;10.224;2022-10-23T03:59:07;5.83;;;5.33;;
5491;SDS011;2768;53.540;10.224;2022-10-23T04:05:54;6.63;;;6.07;;
5491;SDS011;2768;53.540;10.224;2022-10-23T04:12:40;6.80;;;6.20;;
5491;SDS011;2768;53.540;10.224;2022-10-23T04:26:30;5.63;;;5.13;;
5491;SDS011;2768;53.540;10.224;2022-10-23T04:32:35;7.23;;;6.60;;
5491;SDS011;2768;53.540;10.224;2022-10-23T04:38:32;6.53;;;5.93;;
5491;SDS011;2768;53.540;10.224;2022-10-23T04:44:32;6.60;;;6.10;;
5491;SDS011;2768;53.540;10.224;2022-10-23T04:50:37;5.93;;;5.43;;
5491;SDS011;2768;53.540;10.224;2022-10-23T04:56:52;5.97;;;5.57;;
5491;SDS011;2768;53.540;10.224;2022-10-23T05:02:58;5.83;;;5.33;;
5491;SDS011;2768;53.540;10.224;2022-10-23T05:09:03;6.13;;;5.47;;
5491;SDS011;2768;53.540;10.224;2022-10-23T05:15:14;5.67;;;5.27;;
5491;SDS011;2768;53.540;10.224;2022-10-23T05:28:03;6.20;;;5.60;;
5491;SDS011;2768;53.540;10.224;2022-10-23T05:33:58;5.17;;;4.77;;
5491;SDS011;2768;53.540;10.224;2022-10-23T05:39:53;4.93;;;4.53;;
5491;SDS011;2768;53.540;10.224;2022-10-23T05:45:47;5.93;;;5.43;;
5491;SDS011;2768;53.540;10.224;2022-10-23T05:51:58;6.00;;;5.50;;
5491;SDS011;2768;53.540;10.224;2022-10-23T05:58:07;7.40;;;5.03;;
5491;SDS011;2768;53.540;10.224;2022-10-23T06:04:23;5.97;;;5.47;;
5491;SDS011;2768;53.540;10.224;2022-10-23T06:10:44;4.73;;;4.33;;
5491;SDS011;2768;53.540;10.224;2022-10-23T06:16:38;6.10;;;5.53;;
5491;SDS011;2768;53.540;10.224;2022-10-23T06:22:33;6.47;;;5.47;;
5491;SDS011;2768;53.540;10.224;2022-10-23T06:28:42;4.63;;;4.20;;
5491;SDS011;2768;53.540;10.224;2022-10-23T06:34:36;4.40;;;4.10;;
5491;SDS011;2768;53.540;10.224;2022-10-23T06:40:32;4.93;;;4.43;;
5491;SDS011;2768;53.540;10.224;2022-10-23T06:46:29;4.83;;;4.40;;
5491;SDS011;2768;53.540;10.224;2022-10-23T06:52:53;5.33;;;4.10;;
5491;SDS011;2768;53.540;10.224;2022-10-23T06:58:47;4.60;;;4.20;;
5491;SDS011;2768;53.540;10.224;2022-10-23T07:04:41;7.53;;;5.20;;
5491;SDS011;2768;53.540;10.224;2022-10-23T07:10:39;5.83;;;5.07;;
5491;SDS011;2768;53.540;10.224;2022-10-23T07:16:35;6.60;;;5.10;;
5491;SDS011;2768;53.540;10.224;2022-10-23T07:22:28;7.03;;;4.87;;
5491;SDS011;2768;53.540;10.224;2022-10-23T07:28:29;5.97;;;4.70;;
5491;SDS011;2768;53.540;10.224;2022-10-23T07:34:24;5.17;;;4.70;;
5491;SDS011;2768;53.540;10.224;2022-10-23T07:40:41;5.83;;;4.47;;
5491;SDS011;2768;53.540;10.224;2022-10-23T07:46:38;5.53;;;4.50;;
5491;SDS011;2768;53.540;10.224;2022-10-23T07:52:34;4.37;;;3.53;;
5491;SDS011;2768;53.540;10.224;2022-10-23T07:58:34;5.60;;;4.20;;
5491;SDS011;2768;53.540;10.224;2022-10-23T08:04:36;4.73;;;4.07;;
5491;SDS011;2768;53.540;10.224;2022-10-23T08:10:52;4.70;;;3.80;;
5491;SDS011;2768;53.540;10.224;2022-10-23T08:16:52;4.60;;;3.90;;
5491;SDS011;2768;53.540;10.224;2022-10-23T08:23:11;5.33;;;3.90;;
5491;SDS011;2768;53.540;10.224;2022-10-23T08:29:09;6.10;;;3.73;;
5491;SDS011;2768;53.540;10.224;2022-10-23T08:35:03;5.43;;;3.90;;
5491;SDS011;2768;53.540;10.224;2022-10-23T08:40:57;6.60;;;4.10;;
5491;SDS011;2768;53.540;10.224;2022-10-23T08:47:14;6.03;;;3.73;;
5491;SDS011;2768;53.540;10.224;2022-10-23T08:53:43;7.20;;;3.93;;
5491;SDS011;2768;53.540;10.224;2022-10-23T08:59:43;4.77;;;3.77;;
5491;SDS011;2768;53.540;10.224;2022-10-23T09:05:44;4.43;;;3.17;;
5491;SDS011;2768;53.540;10.224;2022-10-23T09:11:47;4.37;;;3.10;;
5491;SDS011;2768;53.540;10.224;2022-10-23T09:17:46;3.67;;;3.20;;
5491;SDS011;2768;53.540;10.224;2022-10-23T09:23:46;6.00;;;3.43;;
5491;SDS011;2768;53.540;10.224;2022-10-23T09:29:45;4.27;;;3.10;;
5491;SDS011;2768;53.540;10.224;2022-10-23T09:35:49;4.67;;;3.00;;
5491;SDS011;2768;53.540;10.224;2022-10-23T09:41:46;11.03;;;3.33;;
5491;SDS011;2768;53.540;10.224;2022-10-23T09:47:39;5.10;;;3.20;;
5491;SDS011;2768;53.540;10.224;2022-10-23T09:53:33;7.30;;;3.33;;
5491;SDS011;2768;53.540;10.224;2022-10-23T09:59:30;5.23;;;3.30;;
5491;SDS011;2768;53.540;10.224;2022-10-23T10:05:27;6.70;;;3.57;;
5491;SDS011;2768;53.540;10.224;2022-10-23T10:11:25;4.77;;;3.03;;
5491;SDS011;2768;53.540;10.224;2022-10-23T10:17:31;3.10;;;2.70;;
5491;SDS011;2768;53.540;10.224;2022-10-23T10:23:31;3.57;;;3.03;;
5491;SDS011;2768;53.540;10.224;2022-10-23T10:29:38;5.23;;;3.30;;
5491;SDS011;2768;53.540;10.224;2022-10-23T10:35:40;5.40;;;3.00;;
5491;SDS011;2768;53.540;10.224;2022-10-23T10:41:42;6.77;;;3.50;;
5491;SDS011;2768;53.540;10.224;2022-10-23T10:47:55;4.73;;;2.73;;
5491;SDS011;2768;53.540;10.224;2022-10-23T10:54:24;7.67;;;2.30;;
5491;SDS011;2768;53.540;10.224;2022-10-23T11:00:26;2.30;;;2.07;;
5491;SDS011;2768;53.540;10.224;2022-10-23T11:06:22;5.30;;;2.63;;
5491;SDS011;2768;53.540;10.224;2022-10-23T11:12:19;2.67;;;1.90;;
5491;SDS011;2768;53.540;10.224;2022-10-23T11:18:16;3.73;;;2.17;;
5491;SDS011;2768;53.540;10.224;2022-10-23T11:24:36;3.17;;;2.23;;
5491;SDS011;2768;53.540;10.224;2022-10-23T11:31:02;4.67;;;2.03;;
5491;SDS011;2768;53.540;10.224;2022-10-23T11:37:02;6.33;;;2.47;;
5491;SDS011;2768;53.540;10.224;2022-10-23T11:42:56;2.80;;;2.00;;
5491;SDS011;2768;53.540;10.224;2022-10-23T11:48:51;3.50;;;2.40;;
5491;SDS011;2768;53.540;10.224;2022-10-23T11:54:45;5.17;;;2.13;;
5491;SDS011;2768;53.540;10.224;2022-10-23T12:00:39;3.57;;;2.07;;
5491;SDS011;2768;53.540;10.224;2022-10-23T12:06:45;2.73;;;2.17;;
5491;SDS011;2768;53.540;10.224;2022-10-23T12:12:40;4.40;;;2.03;;
5491;SDS011;2768;53.540;10.224;2022-10-23T12:18:43;5.27;;;2.13;;
5491;SDS011;2768;53.540;10.224;2022-10-23T12:24:41;6.97;;;2.50;;
5491;SDS011;2768;53.540;10.224;2022-10-23T12:30:50;6.93;;;2.50;;
5491;SDS011;2768;53.540;10.224;2022-10-23T12:36:57;4.77;;;2.37;;
5491;SDS011;2768;53.540;10.224;2022-10-23T12:42:59;4.03;;;2.00;;
5491;SDS011;2768;53.540;10.224;2022-10-23T12:48:53;4.33;;;1.60;;
5491;SDS011;2768;53.540;10.224;2022-10-23T12:54:48;3.37;;;1.80;;
5491;SDS011;2768;53.540;10.224;2022-10-23T13:00:50;5.00;;;2.40;;
5491;SDS011;2768;53.540;10.224;2022-10-23T13:06:44;3.23;;;2.07;;
5491;SDS011;2768;53.540;10.224;2022-10-23T13:12:39;2.43;;;2.10;;
5491;SDS011;2768;53.540;10.224;2022-10-23T13:18:40;2.87;;;2.37;;
5491;SDS011;2768;53.540;10.224;2022-10-23T13:24:34;8.23;;;2.47;;
5491;SDS011;2768;53.540;10.224;2022-10-23T13:30:28;7.03;;;2.67;;
5491;SDS011;2768;53.540;10.224;2022-10-23T13:36:26;3.73;;;2.40;;
5491;SDS011;2768;53.540;10.224;2022-10-23T13:42:23;6.70;;;2.30;;
5491;SDS011;2768;53.540;10.224;2022-10-23T13:48:16;3.70;;;2.57;;
5491;SDS011;2768;53.540;10.224;2022-10-23T13:54:14;4.57;;;2.20;;
5491;SDS011;2768;53.540;10.224;2022-10-23T14:00:09;5.53;;;2.50;;
5491;SDS011;2768;53.540;10.224;2022-10-23T14:06:03;5.30;;;1.83;;
5491;SDS011;2768;53.540;10.224;2022-10-23T14:11:58;2.67;;;2.17;;
5491;SDS011;2768;53.540;10.224;2022-10-23T14:17:51;2.80;;;2.40;;
5491;SDS011;2768;53.540;10.224;2022-10-23T14:23:51;5.60;;;2.30;;
5491;SDS011;2768;53.540;10.224;2022-10-23T14:29:46;3.70;;;2.10;;
5491;SDS011;2768;53.540;10.224;2022-10-23T14:35:40;4.17;;;2.37;;
5491;SDS011;2768;53.540;10.224;2022-10-23T14:41:34;4.10;;;2.10;;
5491;SDS011;2768;53.540;10.224;2022-10-23T14:47:29;3.60;;;2.00;;
5491;SDS011;2768;53.540;10.224;2022-10-23T14:53:23;3.53;;;2.30;;
5491;SDS011;2768;53.540;10.224;2022-10-23T14:59:17;5.77;;;2.60;;
5491;SDS011;2768;53.540;10.224;2022-10-23T15:05:11;3.00;;;2.10;;
5491;SDS011;2768;53.540;10.224;2022-10-23T15:11:04;4.27;;;2.70;;
5491;SDS011;2768;53.540;10.224;2022-10-23T15:17:02;3.30;;;2.33;;
5491;SDS011;2768;53.540;10.224;2022-10-23T15:22:57;8.80;;;3.73;;
5491;SDS011;2768;53.540;10.224;2022-10-23T15:28:52;2.80;;;2.50;;
5491;SDS011;2768;53.540;10.224;2022-10-23T15:34:46;3.80;;;2.13;;
5491;SDS011;2768;53.540;10.224;2022-10-23T15:40:41;4.40;;;3.03;;
5491;SDS011;2768;53.540;10.224;2022-10-23T15:46:36;6.63;;;3.20;;
5491;SDS011;2768;53.540;10.224;2022-10-23T15:52:29;4.20;;;3.33;;
5491;SDS011;2768;53.540;10.224;2022-10-23T15:58:24;3.90;;;3.50;;
5491;SDS011;2768;53.540;10.224;2022-10-23T16:04:17;4.33;;;3.27;;
5491;SDS011;2768;53.540;10.224;2022-10-23T16:10:11;8.83;;;2.97;;
5491;SDS011;2768;53.540;10.224;2022-10-23T16:16:08;4.07;;;2.70;;
5491;SDS011;2768;53.540;10.224;2022-10-23T16:22:01;5.93;;;3.60;;
5491;SDS011;2768;53.540;10.224;2022-10-23T16:27:56;3.67;;;2.60;;
5491;SDS011;2768;53.540;10.224;2022-10-23T16:33:52;5.93;;;3.00;;
5491;SDS011;2768;53.540;10.224;2022-10-23T16:39:46;9.53;;;3.13;;
5491;SDS011;2768;53.540;10.224;2022-10-23T16:46:02;5.00;;;2.70;;
5491;SDS011;2768;53.540;10.224;2022-10-23T16:51:58;5.13;;;3.70;;
5491;SDS011;2768;53.540;10.224;2022-10-23T16:57:51;3.87;;;3.13;;
5491;SDS011;2768;53.540;10.224;2022-10-23T17:03:46;5.23;;;3.57;;
5491;SDS011;2768;53.540;10.224;2022-10-23T17:09:44;5.57;;;3.10;;
5491;SDS011;2768;53.540;10.224;2022-10-23T17:15:37;4.30;;;3.07;;
5491;SDS011;2768;53.540;10.224;2022-10-23T17:21:31;3.60;;;2.70;;
5491;SDS011;2768;53.540;10.224;2022-10-23T17:27:27;4.67;;;3.70;;
5491;SDS011;2768;53.540;10.224;2022-10-23T17:33:21;4.13;;;2.87;;
5491;SDS011;2768;53.540;10.224;2022-10-23T17:39:15;5.47;;;3.40;;
5491;SDS011;2768;53.540;10.224;2022-10-23T17:45:12;4.63;;;3.63;;
5491;SDS011;2768;53.540;10.224;2022-10-23T17:51:06;3.20;;;2.60;;
5491;SDS011;2768;53.540;10.224;2022-10-23T17:57:00;3.83;;;2.60;;
5491;SDS011;2768;53.540;10.224;2022-10-23T18:02:55;5.30;;;3.13;;
5491;SDS011;2768;53.540;10.224;2022-10-23T18:08:49;5.50;;;2.63;;
5491;SDS011;2768;53.540;10.224;2022-10-23T18:14:42;2.83;;;2.27;;
5491;SDS011;2768;53.540;10.224;2022-10-23T18:20:40;3.33;;;2.60;;
5491;SDS011;2768;53.540;10.224;2022-10-23T18:26:34;4.33;;;2.70;;
5491;SDS011;2768;53.540;10.224;2022-10-23T18:32:28;7.60;;;2.93;;
5491;SDS011;2768;53.540;10.224;2022-10-23T18:38:22;4.30;;;2.70;;
5491;SDS011;2768;53.540;10.224;2022-10-23T18:44:16;3.43;;;2.67;;
5491;SDS011;2768;53.540;10.224;2022-10-23T18:50:11;4.97;;;3.40;;
5491;SDS011;2768;53.540;10.224;2022-10-23T18:56:07;5.00;;;3.00;;
5491;SDS011;2768;53.540;10.224;2022-10-23T19:02:00;4.50;;;3.20;;
5491;SDS011;2768;53.540;10.224;2022-10-23T19:07:54;5.50;;;2.60;;
5491;SDS011;2768;53.540;10.224;2022-10-23T19:13:49;4.43;;;2.57;;
5491;SDS011;2768;53.540;10.224;2022-10-23T19:19:43;2.57;;;2.30;;
5491;SDS011;2768;53.540;10.224;2022-10-23T19:25:39;4.83;;;3.27;;
5491;SDS011;2768;53.540;10.224;2022-10-23T19:31:37;3.60;;;3.30;;
5491;SDS011;2768;53.540;10.224;2022-10-23T19:37:33;4.30;;;2.80;;
5491;SDS011;2768;53.540;10.224;2022-10-23T19:43:26;7.53;;;2.80;;
5491;SDS011;2768;53.540;10.224;2022-10-23T19:49:21;3.73;;;2.90;;
5491;SDS011;2768;53.540;10.224;2022-10-23T19:55:15;5.23;;;2.50;;
5491;SDS011;2768;53.540;10.224;2022-10-23T20:01:09;4.00;;;2.70;;
5491;SDS011;2768;53.540;10.224;2022-10-23T20:07:05;3.43;;;2.80;;
5491;SDS011;2768;53.540;10.224;2022-10-23T20:12:59;2.70;;;2.33;;
5491;SDS011;2768;53.540;10.224;2022-10-23T20:19:11;5.87;;;2.70;;
5491;SDS011;2768;53.540;10.224;2022-10-23T20:25:10;3.80;;;2.57;;
5491;SDS011;2768;53.540;10.224;2022-10-23T20:31:04;3.50;;;2.50;;
5491;SDS011;2768;53.540;10.224;2022-10-23T20:36:59;4.23;;;2.97;;
5491;SDS011;2768;53.540;10.224;2022-10-23T20:42:53;7.93;;;3.50;;
5491;SDS011;2768;53.540;10.224;2022-10-23T20:48:47;3.10;;;2.40;;
5491;SDS011;2768;53.540;10.224;2022-10-23T20:54:41;4.77;;;3.67;;
5491;SDS011;2768;53.540;10.224;2022-10-23T21:00:35;7.27;;;3.73;;
5491;SDS011;2768;53.540;10.224;2022-10-23T21:06:29;2.80;;;2.57;;
5491;SDS011;2768;53.540;10.224;2022-10-23T21:12:44;4.30;;;3.10;;
5491;SDS011;2768;53.540;10.224;2022-10-23T21:18:38;4.57;;;2.80;;
5491;SDS011;2768;53.540;10.224;2022-10-23T21:24:36;2.10;;;1.83;;
5491;SDS011;2768;53.540;10.224;2022-10-23T21:30:30;2.10;;;1.70;;
5491;SDS011;2768;53.540;10.224;2022-10-23T21:36:26;2.97;;;2.07;;
5491;SDS011;2768;53.540;10.224;2022-10-23T21:42:24;2.20;;;1.60;;
5491;SDS011;2768;53.540;10.224;2022-10-23T21:48:17;2.33;;;1.73;;
5491;SDS011;2768;53.540;10.224;2022-10-23T21:54:12;2.60;;;1.80;;
5491;SDS011;2768;53.540;10.224;2022-10-23T22:00:06;6.90;;;2.07;;
5491;SDS011;2768;53.540;10.224;2022-10-23T22:06:02;3.13;;;1.93;;
5491;SDS011;2768;53.540;10.224;2022-10-23T22:11:57;1.60;;;1.23;;
5491;SDS011;2768;53.540;10.224;2022-10-23T22:17:51;1.10;;;0.87;;
5491;SDS011;2768;53.540;10.224;2022-10-23T22:23:45;2.00;;;1.00;;
5491;SDS011;2768;53.540;10.224;2022-10-23T22:29:41;1.60;;;1.23;;
5491;SDS011;2768;53.540;10.224;2022-10-23T22:35:35;1.60;;;1.20;;
5491;SDS011;2768;53.540;10.224;2022-10-23T22:41:28;3.70;;;1.40;;
5491;SDS011;2768;53.540;10.224;2022-10-23T22:47:23;1.80;;;1.57;;
5491;SDS011;2768;53.540;10.224;2022-10-23T22:53:16;1.93;;;1.40;;
5491;SDS011;2768;53.540;10.224;2022-10-23T22:59:10;1.47;;;1.37;;
5491;SDS011;2768;53.540;10.224;2022-10-23T23:05:05;1.57;;;1.47;;
5491;SDS011;2768;53.540;10.224;2022-10-23T23:11:01;2.73;;;1.50;;
5491;SDS011;2768;53.540;10.224;2022-10-23T23:16:55;4.63;;;1.70;;
5491;SDS011;2768;53.540;10.224;2022-10-23T23:22:49;3.30;;;1.80;;
5491;SDS011;2768;53.540;10.224;2022-10-23T23:28:43;2.60;;;2.00;;
5491;SDS011;2768;53.540;10.224;2022-10-23T23:34:36;2.63;;;2.23;;
5491;SDS011;2768;53.540;10.224;2022-10-23T23:40:31;2.60;;;2.40;;
5491;SDS011;2768;53.540;10.224;2022-10-23T23:46:24;6.70;;;2.43;;
5491;SDS011;2768;53.540;10.224;2022-10-23T23:52:17;3.17;;;2.27;;
5491;SDS011;2768;53.540;10.224;2022-10-23T23:58:12;3.77;;;2.67;;
